Time;durP1;ratioP1;P1;durP2;ratioP2;P2;SDS_P1;SDS_P2;PMS_P1;PMS_P2;Temp;Humidity;BMP_temperature;BMP_pressure;BME280_temperature;BME280_humidity;BME280_pressure;Samples;Min_cycle;Max_cycle;Signal;HPM_P1;HPM_P2
2023/03/19 00:01:59;;;;;;;8.47;7.63;;;13.00;85.60;;;15.68;59.52;101100.31;5135517;27;20540;-57
2023/03/19 00:04:44;;;;;;;8.77;7.27;;;13.00;85.60;;;15.67;59.38;101103.97;5135553;27;20211;-55
2023/03/19 00:07:13;;;;;;;7.27;6.60;;;13.00;85.50;;;15.66;59.66;101098.88;5116057;27;20207;-56
2023/03/19 00:09:40;;;;;;;7.33;6.73;;;13.00;85.80;;;15.63;59.47;101102.72;5096957;27;20192;-55
2023/03/19 00:12:09;;;;;;;7.07;6.40;;;13.00;85.60;;;15.61;59.32;101103.94;5114780;28;20191;-56
2023/03/19 00:14:36;;;;;;;6.50;6.00;;;12.90;85.50;;;15.58;59.31;101111.28;5114754;27;20280;-57
2023/03/19 00:17:03;;;;;;;7.87;7.17;;;12.90;85.60;;;15.56;59.25;101107.19;5114198;28;20207;-58
2023/03/19 00:19:30;;;;;;;8.00;7.20;;;12.90;85.80;;;15.54;59.98;101109.22;5116095;28;20192;-57
2023/03/19 00:21:58;;;;;;;7.20;6.60;;;12.90;86.10;;;15.49;59.63;101112.47;5114787;28;20203;-57
2023/03/19 00:24:25;;;;;;;6.73;6.13;;;12.80;85.80;;;15.45;59.43;101105.13;5104483;28;20273;-53
2023/03/19 00:26:52;;;;;;;6.97;6.23;;;12.80;85.90;;;15.45;59.68;101105.91;5094473;28;20206;-57
2023/03/19 00:29:19;;;;;;;7.57;6.97;;;12.80;86.10;;;15.44;59.69;101108.72;5094065;28;20188;-55
2023/03/19 00:31:46;;;;;;;8.50;7.43;;;12.80;86.10;;;15.41;60.04;101114.44;5094151;28;20275;-55
2023/03/19 00:34:17;;;;;;;8.83;8.03;;;12.70;86.40;;;15.36;60.30;101106.25;5100583;28;20559;-55
2023/03/19 00:36:45;;;;;;;8.23;7.43;;;12.80;86.60;;;15.30;60.53;101107.88;5113773;28;20202;-55
2023/03/19 00:39:13;;;;;;;9.03;8.23;;;12.70;87.10;;;15.23;60.77;101108.84;5114197;28;20253;-57
2023/03/19 00:41:40;;;;;;;9.10;8.20;;;12.70;87.20;;;15.18;61.19;101109.41;5113892;28;20222;-55
2023/03/19 00:44:07;;;;;;;7.73;7.03;;;12.60;87.10;;;15.12;61.36;101114.69;5113797;28;20540;-55
2023/03/19 00:46:34;;;;;;;8.07;7.37;;;12.60;87.70;;;15.08;61.50;101116.06;5113852;28;20217;-55
2023/03/19 00:49:01;;;;;;;8.27;7.57;;;12.60;87.70;;;15.05;60.94;101113.84;5097613;28;20514;-56
2023/03/19 00:51:28;;;;;;;7.70;7.00;;;12.50;87.50;;;15.05;61.21;101113.84;5093996;28;20189;-57
2023/03/19 00:53:55;;;;;;;7.23;6.60;;;12.50;87.80;;;15.07;61.06;101106.50;5093537;28;20219;-58
2023/03/19 00:56:23;;;;;;;8.53;7.73;;;12.50;88.00;;;15.08;61.13;101102.81;5096362;27;20207;-57
2023/03/19 00:58:50;;;;;;;7.17;6.50;;;12.40;88.10;;;15.10;61.07;101104.25;5134346;27;20207;-57
2023/03/19 01:01:17;;;;;;;9.00;8.10;;;12.40;87.90;;;15.11;60.94;101102.44;5134246;27;20190;-55
2023/03/19 01:03:46;;;;;;;8.17;7.47;;;12.50;88.10;;;15.09;60.86;101110.59;5115748;27;20220;-55
2023/03/19 01:06:13;;;;;;;7.80;7.10;;;12.50;87.90;;;15.09;60.92;101115.06;5092107;28;20212;-54
2023/03/19 01:08:40;;;;;;;8.53;7.83;;;12.50;87.90;;;15.08;61.01;101113.41;5119372;27;20191;-56
2023/03/19 01:11:11;;;;;;;8.37;7.67;;;12.40;88.00;;;15.06;61.02;101115.44;5113381;28;20196;-55
2023/03/19 01:13:41;;;;;;;8.73;7.93;;;12.40;87.70;;;15.05;61.14;101122.59;5113194;28;20223;-55
2023/03/19 01:16:08;;;;;;;8.60;7.90;;;12.40;87.90;;;15.02;61.08;101119.50;5113317;28;20202;-56
2023/03/19 01:18:36;;;;;;;8.27;7.57;;;12.40;87.90;;;15.01;60.90;101113.38;5113444;28;20261;-57
2023/03/19 01:21:04;;;;;;;8.90;8.10;;;12.40;88.00;;;15.01;60.93;101113.38;5113067;28;20303;-60
2023/03/19 01:23:31;;;;;;;7.97;7.17;;;12.30;88.00;;;15.00;61.10;101113.59;5113456;28;20679;-56
2023/03/19 01:25:58;;;;;;;8.47;7.77;;;12.30;87.80;;;14.98;60.96;101111.13;5113667;28;20249;-56
2023/03/19 01:28:25;;;;;;;7.97;7.27;;;12.30;87.90;;;14.99;60.76;101111.94;5113313;28;20198;-55
2023/03/19 01:30:59;;;;;;;7.13;6.50;;;12.30;87.90;;;14.98;60.60;101110.28;5113852;28;20195;-55
2023/03/19 01:33:26;;;;;;;8.07;7.37;;;12.30;88.00;;;15.01;61.13;101107.25;5117599;28;20211;-55
2023/03/19 01:35:54;;;;;;;7.83;7.13;;;12.30;88.30;;;15.03;61.04;101105.22;5109395;28;20234;-54
2023/03/19 01:38:21;;;;;;;7.90;7.20;;;12.30;88.40;;;15.05;60.84;101111.97;5095876;28;20250;-57
2023/03/19 01:40:48;;;;;;;8.17;7.40;;;12.30;88.40;;;15.07;60.80;101106.50;5096709;28;20188;-56
2023/03/19 01:43:19;;;;;;;9.00;8.03;;;12.30;88.50;;;15.08;60.82;101113.41;5095489;28;20228;-56
2023/03/19 01:45:50;;;;;;;9.00;8.20;;;12.30;88.70;;;15.03;61.20;101115.84;5091872;28;20184;-55
2023/03/19 01:48:38;;;;;;;7.93;7.23;;;12.30;88.50;;;15.01;61.18;101109.91;5093153;28;20262;-55
2023/03/19 01:51:08;;;;;;;8.70;7.90;;;12.30;88.50;;;15.04;61.24;101113.00;5094097;28;20195;-55
2023/03/19 01:53:40;;;;;;;9.07;8.27;;;12.30;88.40;;;15.08;61.02;101113.41;5092973;28;20200;-56
2023/03/19 01:56:13;;;;;;;11.50;7.63;;;12.40;88.50;;;15.11;60.89;101108.56;5093162;28;20207;-54
2023/03/19 01:58:43;;;;;;;10.40;9.40;;;12.30;88.40;;;15.15;60.86;101109.81;5097133;28;20273;-54
2023/03/19 02:01:10;;;;;;;12.17;8.93;;;12.40;88.60;;;15.18;60.76;101108.59;5097355;28;20192;-56
2023/03/19 02:03:40;;;;;;;7.80;7.07;;;12.40;88.60;;;15.19;60.57;101110.25;5095254;28;20625;-56
2023/03/19 02:06:11;;;;;;;8.37;7.57;;;12.40;88.40;;;15.19;60.61;101112.91;5108292;28;20290;-57
2023/03/19 02:08:40;;;;;;;8.80;8.00;;;12.40;88.40;;;15.20;60.48;101106.56;5117304;27;20188;-56
2023/03/19 02:11:08;;;;;;;8.47;7.70;;;12.40;88.30;;;15.19;60.54;101102.28;5117152;28;20196;-56
2023/03/19 02:13:35;;;;;;;7.90;7.30;;;12.40;88.20;;;15.16;60.53;101100.03;5117051;28;20222;-55
2023/03/19 02:16:03;;;;;;;8.40;7.60;;;12.40;87.90;;;15.10;60.54;101106.91;5117039;28;20196;-57
2023/03/19 02:18:30;;;;;;;7.87;7.17;;;12.40;87.90;;;15.01;60.69;101105.44;5117459;28;20680;-57
2023/03/19 02:21:06;;;;;;;8.50;7.70;;;12.40;87.90;;;14.97;60.64;101106.03;5117730;28;20202;-57
2023/03/19 02:23:42;;;;;;;7.47;6.77;;;12.40;87.90;;;14.97;60.49;101106.03;5111894;28;20242;-55
2023/03/19 02:26:13;;;;;;;8.93;8.13;;;12.30;87.90;;;14.97;60.98;101104.19;5097055;28;20227;-56
2023/03/19 02:28:44;;;;;;;10.40;9.40;;;12.30;88.30;;;14.97;60.91;101098.88;5096609;28;20196;-55
2023/03/19 02:31:12;;;;;;;7.80;7.07;;;12.30;88.20;;;14.96;60.87;101104.38;5096310;28;20602;-55
2023/03/19 02:33:40;;;;;;;8.60;7.80;;;12.30;88.30;;;14.95;60.94;101103.56;5095885;28;20239;-56
2023/03/19 02:36:15;;;;;;;8.73;7.83;;;12.30;88.50;;;14.93;61.12;101094.19;5096515;28;20196;-57
2023/03/19 02:38:45;;;;;;;7.20;6.57;;;12.30;88.50;;;14.91;61.15;101102.31;5096255;28;20212;-57
2023/03/19 02:41:13;;;;;;;8.33;7.47;;;12.20;88.40;;;14.87;61.20;101096.59;5115105;28;20184;-58
2023/03/19 02:43:41;;;;;;;7.67;6.97;;;12.20;88.60;;;14.81;61.69;101092.03;5132465;27;20273;-55
2023/03/19 02:46:12;;;;;;;8.97;8.10;;;12.20;88.60;;;14.78;61.80;101094.28;5116719;28;20196;-58
2023/03/19 02:48:40;;;;;;;7.87;7.17;;;12.20;88.90;;;14.75;61.78;101092.00;5116747;28;20271;-57
2023/03/19 02:51:07;;;;;;;7.67;6.90;;;12.20;88.90;;;14.76;61.87;101094.44;5116940;28;20210;-57
2023/03/19 02:53:35;;;;;;;8.10;7.40;;;12.20;88.90;;;14.76;61.91;101098.94;5116535;28;20218;-55
2023/03/19 02:56:02;;;;;;;8.17;7.37;;;12.20;89.20;;;14.74;61.90;101099.13;5114854;28;20199;-57
2023/03/19 02:58:30;;;;;;;9.00;8.10;;;12.20;89.30;;;14.73;62.16;101100.16;5136145;27;20589;-56
2023/03/19 03:00:57;;;;;;;8.17;7.40;;;12.20;89.40;;;14.66;62.46;101101.94;5137429;27;20217;-56
2023/03/19 03:03:24;;;;;;;7.83;7.23;;;12.10;89.60;;;14.68;62.00;101104.38;5116180;27;20216;-57
2023/03/19 03:05:51;;;;;;;8.13;7.37;;;12.10;89.30;;;14.68;62.15;101086.66;5115875;28;20196;-56
2023/03/19 03:08:19;;;;;;;8.07;7.37;;;12.10;89.40;;;14.71;62.35;101091.56;5117127;27;20232;-54
2023/03/19 03:10:46;;;;;;;9.37;8.57;;;12.10;89.50;;;14.75;61.72;101106.06;5117752;27;20203;-56
2023/03/19 03:13:13;;;;;;;8.80;7.90;;;12.10;89.50;;;14.75;61.91;101103.44;5116200;28;20268;-53
2023/03/19 03:15:41;;;;;;;9.53;8.67;;;12.10;89.50;;;14.75;62.05;101103.44;5115813;28;20203;-57
2023/03/19 03:18:08;;;;;;;8.83;8.10;;;12.10;89.50;;;14.75;61.67;101110.56;5116405;28;20208;-55
2023/03/19 03:20:35;;;;;;;8.40;7.53;;;12.10;89.50;;;14.73;61.71;101110.75;5115895;28;20207;-56
2023/03/19 03:23:02;;;;;;;8.57;7.63;;;12.10;89.50;;;14.68;62.12;101117.63;5115898;28;20218;-56
2023/03/19 03:25:29;;;;;;;8.17;7.40;;;12.10;89.50;;;14.63;62.07;101107.59;5116659;27;20198;-55
2023/03/19 03:27:56;;;;;;;8.23;7.43;;;12.10;89.50;;;14.65;62.37;101113.53;5096536;28;20201;-56
2023/03/19 03:30:23;;;;;;;8.43;7.63;;;12.10;89.40;;;14.70;61.91;101111.13;5095431;28;20726;-55
2023/03/19 03:32:52;;;;;;;8.03;7.23;;;12.10;89.50;;;14.76;61.55;101115.66;5095500;28;20585;-56
2023/03/19 03:35:21;;;;;;;8.17;7.47;;;12.10;89.60;;;14.78;61.48;101124.25;5110159;28;20640;-58
2023/03/19 03:37:49;;;;;;;8.00;7.30;;;12.10;89.40;;;14.77;61.39;101122.59;5116112;28;20271;-55
2023/03/19 03:40:17;;;;;;;9.33;8.53;;;12.10;89.40;;;14.74;61.79;101116.84;5115608;27;20227;-57
2023/03/19 03:42:44;;;;;;;7.50;6.80;;;12.10;89.30;;;14.76;61.60;101122.81;5115491;28;20195;-57
2023/03/19 03:45:12;;;;;;;8.07;7.37;;;12.10;89.20;;;14.80;61.63;101121.41;5116064;28;20660;-54
2023/03/19 03:47:39;;;;;;;8.00;7.30;;;12.10;89.40;;;14.86;61.24;101116.13;5112467;27;20197;-55
2023/03/19 03:50:09;;;;;;;8.17;7.37;;;12.10;89.30;;;14.89;60.92;101118.41;5095398;28;20184;-54
2023/03/19 03:52:37;;;;;;;7.70;7.00;;;12.10;89.30;;;14.94;60.86;101128.44;5095339;28;20271;-53
2023/03/19 03:55:06;;;;;;;8.53;7.83;;;12.10;89.10;;;14.93;60.90;101121.47;5097014;28;20192;-56
2023/03/19 03:57:33;;;;;;;7.63;7.03;;;12.20;88.90;;;14.90;60.79;101127.97;5117083;27;20198;-56
2023/03/19 04:00:00;;;;;;;8.40;7.60;;;12.20;88.70;;;14.86;61.02;101129.38;5115570;28;20272;-57
2023/03/19 04:02:27;;;;;;;8.30;7.50;;;12.10;88.60;;;14.81;60.70;101131.78;5102158;28;20237;-58
2023/03/19 04:04:55;;;;;;;7.70;7.07;;;12.10;88.50;;;14.82;60.74;101117.53;5095171;28;20669;-56
2023/03/19 04:07:23;;;;;;;7.80;7.20;;;12.10;88.50;;;14.86;60.92;101126.75;5101301;27;20787;-55
2023/03/19 04:09:50;;;;;;;8.00;7.20;;;12.10;88.60;;;14.89;60.67;101118.41;5122720;27;20196;-55
2023/03/19 04:12:17;;;;;;;9.67;8.77;;;12.10;88.70;;;14.91;60.81;101108.44;5115129;28;20594;-55
2023/03/19 04:14:44;;;;;;;8.20;7.50;;;12.10;88.70;;;14.90;60.84;101112.06;5114527;28;20215;-56
2023/03/19 04:17:11;;;;;;;8.70;7.90;;;12.20;88.70;;;14.91;60.71;101119.03;5114810;28;20243;-57
2023/03/19 04:19:37;;;;;;;8.30;7.57;;;12.20;88.60;;;14.93;60.72;101110.06;5114529;28;20296;-55
2023/03/19 04:22:06;;;;;;;8.90;8.10;;;12.20;88.50;;;14.93;60.62;101110.06;5114370;28;20648;-56
2023/03/19 04:24:35;;;;;;;8.53;7.73;;;12.20;88.60;;;14.91;60.71;101107.59;5114645;28;20211;-56
2023/03/19 04:27:02;;;;;;;8.80;8.03;;;12.20;88.50;;;14.91;60.42;101111.06;5114886;28;20249;-55
2023/03/19 04:29:29;;;;;;;8.60;7.80;;;12.20;88.30;;;14.93;60.54;101115.38;5114060;28;20194;-55
2023/03/19 04:31:56;;;;;;;8.00;7.27;;;12.20;88.30;;;14.95;60.62;101116.81;5114103;28;20188;-56
2023/03/19 04:34:23;;;;;;;9.43;8.63;;;12.20;88.30;;;14.96;60.52;101110.50;5114461;28;20664;-56
2023/03/19 04:36:50;;;;;;;9.17;8.37;;;12.20;88.30;;;14.98;60.29;101112.94;5114827;28;20192;-55
2023/03/19 04:39:18;;;;;;;9.03;8.13;;;12.20;88.30;;;14.99;60.32;101114.59;5114428;28;20237;-54
2023/03/19 04:41:46;;;;;;;11.23;8.83;;;12.20;88.90;;;14.99;60.17;101114.59;5114546;28;20602;-57
2023/03/19 04:44:13;;;;;;;9.57;8.70;;;12.20;88.00;;;14.96;60.36;101118.44;5110861;27;20573;-57
2023/03/19 04:46:40;;;;;;;9.70;8.77;;;12.20;88.10;;;14.96;60.36;101117.63;5094574;28;20196;-56
2023/03/19 04:49:08;;;;;;;9.80;9.00;;;12.20;88.00;;;14.92;60.30;101125.16;5094051;28;20192;-56
2023/03/19 04:51:35;;;;;;;8.73;7.50;;;12.20;88.00;;;14.90;60.47;101127.97;5093802;28;20192;-54
2023/03/19 04:54:02;;;;;;;9.37;8.57;;;12.20;88.00;;;14.93;60.47;101131.28;5097669;28;20679;-56
2023/03/19 04:56:30;;;;;;;10.23;9.33;;;12.20;88.00;;;14.96;60.42;101136.19;5111512;27;20254;-55
2023/03/19 04:58:58;;;;;;;9.53;8.70;;;12.20;88.10;;;14.97;60.47;101132.53;5135216;27;20234;-59
2023/03/19 05:01:25;;;;;;;10.17;9.17;;;12.20;88.10;;;14.96;60.30;101136.19;5134721;27;20183;-56
2023/03/19 05:03:52;;;;;;;9.83;8.77;;;12.20;88.10;;;14.95;60.27;101134.56;5134349;27;20271;-58
2023/03/19 05:06:19;;;;;;;9.20;8.30;;;12.20;88.10;;;14.94;60.29;101133.72;5119885;27;20203;-54
2023/03/19 05:08:46;;;;;;;8.77;7.83;;;12.20;88.00;;;14.98;60.20;101139.44;5129170;27;20644;-54
2023/03/19 05:11:13;;;;;;;10.03;9.17;;;12.20;88.30;;;14.98;60.39;101150.06;5117627;27;20188;-56
2023/03/19 05:13:40;;;;;;;10.20;9.27;;;12.20;88.30;;;14.91;60.37;101150.00;5113822;28;20695;-58
2023/03/19 05:16:09;;;;;;;10.27;8.83;;;12.20;88.20;;;14.90;60.45;101143.88;5114204;28;20546;-55
2023/03/19 05:18:36;;;;;;;9.27;8.43;;;12.20;88.20;;;14.89;60.62;101152.88;5114253;28;20199;-55
2023/03/19 05:21:10;;;;;;;7.83;7.20;;;12.20;88.20;;;14.93;60.56;101148.81;5114389;28;20218;-54
2023/03/19 05:23:37;;;;;;;8.00;7.30;;;12.20;88.30;;;15.00;60.40;101143.53;5113063;28;20215;-56
2023/03/19 05:26:05;;;;;;;9.37;8.47;;;12.20;88.50;;;15.05;60.29;101140.34;5114149;28;20283;-57
2023/03/19 05:28:32;;;;;;;8.90;8.00;;;12.20;88.50;;;15.09;60.14;101144.25;5113957;28;20192;-56
2023/03/19 05:30:59;;;;;;;8.77;7.97;;;12.20;88.30;;;15.09;60.01;101142.41;5114276;28;20196;-54
2023/03/19 05:33:28;;;;;;;10.07;9.07;;;12.20;88.30;;;15.12;60.06;101146.50;5120185;28;20214;-57
2023/03/19 05:35:54;;;;;;;13.40;9.00;;;12.20;88.20;;;15.12;59.92;101141.22;5120967;28;20199;-58
2023/03/19 05:38:24;;;;;;;10.40;9.40;;;12.20;88.00;;;15.09;59.93;101136.28;5106600;27;20251;-54
2023/03/19 05:40:51;;;;;;;10.20;9.20;;;12.20;87.90;;;15.06;59.94;101144.63;5100536;28;20307;-56
2023/03/19 05:43:18;;;;;;;9.57;8.67;;;12.20;87.80;;;15.01;59.83;101145.19;5100041;28;20785;-57
2023/03/19 05:45:51;;;;;;;11.50;9.47;;;12.20;87.60;;;14.96;59.84;101147.59;5100628;28;20192;-55
2023/03/19 05:48:18;;;;;;;9.90;9.00;;;12.20;87.70;;;14.90;60.11;101153.69;5100511;28;20196;-57
2023/03/19 05:50:46;;;;;;;10.43;8.63;;;12.20;87.60;;;14.87;60.04;101157.53;5104997;27;20203;-57
2023/03/19 05:53:14;;;;;;;10.07;9.07;;;12.20;87.60;;;14.87;60.41;101159.38;5099768;28;20208;-57
2023/03/19 05:55:41;;;;;;;9.73;8.60;;;12.10;88.00;;;14.89;60.37;101160.00;5100265;28;20188;-56
2023/03/19 05:58:08;;;;;;;9.90;8.87;;;12.10;88.20;;;14.92;60.48;101156.97;5133164;27;20191;-56
2023/03/19 06:00:36;;;;;;;9.80;8.90;;;12.20;88.50;;;14.99;60.46;101159.66;5141340;27;20236;-55
2023/03/19 06:03:03;;;;;;;9.50;8.60;;;12.20;88.70;;;15.02;60.37;101162.75;5121851;27;20268;-55
2023/03/19 06:05:30;;;;;;;9.23;8.43;;;12.20;88.60;;;15.04;60.24;101162.56;5107683;27;20204;-56
2023/03/19 06:07:59;;;;;;;9.73;8.83;;;12.20;88.40;;;15.05;60.02;101157.03;5116199;27;20203;-55
2023/03/19 06:10:26;;;;;;;9.43;8.47;;;12.20;88.30;;;15.06;59.83;101152.56;5131954;27;20192;-55
2023/03/19 06:12:53;;;;;;;9.60;8.70;;;12.20;88.00;;;15.07;59.78;101159.53;5120402;27;20593;-56
2023/03/19 06:15:20;;;;;;;8.90;8.10;;;12.20;88.00;;;15.08;59.73;101161.97;5121064;27;20546;-57
2023/03/19 06:17:47;;;;;;;9.20;8.33;;;12.20;88.00;;;15.10;59.96;101159.94;5119479;27;20207;-55
2023/03/19 06:20:14;;;;;;;8.57;7.70;;;12.20;87.80;;;15.13;59.89;101159.56;5120320;28;20211;-56
2023/03/19 06:22:42;;;;;;;9.20;8.40;;;12.20;87.90;;;15.19;59.78;101161.44;5120414;27;20195;-56
2023/03/19 06:25:10;;;;;;;9.40;8.43;;;12.30;88.20;;;15.29;59.31;101156.59;5120515;28;20192;-55
2023/03/19 06:27:37;;;;;;;11.07;9.73;;;12.30;88.30;;;15.33;59.35;101160.50;5120152;27;20203;-60
2023/03/19 06:30:06;;;;;;;9.97;9.07;;;12.40;88.90;;;15.36;59.32;101164.59;5120182;27;20187;-56
2023/03/19 06:32:33;;;;;;;9.97;9.13;;;12.40;88.10;;;15.42;59.19;101171.78;5109794;27;20695;-55
2023/03/19 06:35:00;;;;;;;10.43;9.43;;;12.50;88.00;;;15.47;59.05;101167.56;5099809;28;20188;-57
2023/03/19 06:37:28;;;;;;;8.77;7.97;;;12.50;88.00;;;15.55;59.06;101174.53;5099931;28;20275;-54
2023/03/19 06:39:55;;;;;;;9.07;8.27;;;12.50;87.90;;;15.63;59.03;101177.03;5100334;28;20228;-58
2023/03/19 06:42:23;;;;;;;9.97;9.03;;;12.60;87.90;;;15.71;58.67;101179.53;5099662;28;20192;-56
2023/03/19 06:44:50;;;;;;;10.67;9.67;;;12.60;87.70;;;15.75;58.32;101178.13;5095635;28;20672;-56
2023/03/19 06:47:19;;;;;;;10.27;8.60;;;12.70;87.50;;;15.81;58.65;101174.66;5115407;28;20214;-56
2023/03/19 06:49:46;;;;;;;9.30;8.40;;;12.80;87.60;;;15.90;58.72;101181.44;5116825;28;20188;-55
2023/03/19 06:52:13;;;;;;;8.90;8.10;;;12.80;87.60;;;15.98;58.48;101170.66;5116670;28;20188;-56
2023/03/19 06:54:40;;;;;;;8.77;7.97;;;12.90;87.50;;;16.02;58.13;101177.19;5116759;28;20227;-57
2023/03/19 06:57:07;;;;;;;8.33;7.53;;;13.00;88.10;;;16.09;58.34;101182.53;5124357;27;20565;-58
2023/03/19 06:59:36;;;;;;;8.97;7.27;;;13.00;87.20;;;16.17;58.18;101180.50;5103414;28;20213;-54
2023/03/19 07:02:03;;;;;;;9.70;8.73;;;13.10;87.30;;;16.33;58.32;101179.31;5096223;28;20189;-55
2023/03/19 07:04:30;;;;;;;9.30;8.40;;;13.20;87.30;;;16.43;57.46;101181.59;5095663;28;20222;-56
2023/03/19 07:06:57;;;;;;;8.57;7.87;;;13.30;86.90;;;16.49;57.08;101188.78;5096473;28;20189;-55
2023/03/19 07:09:24;;;;;;;9.43;8.53;;;13.40;86.40;;;16.48;57.26;101197.75;5136658;27;20601;-55
2023/03/19 07:11:51;;;;;;;8.53;7.63;;;13.40;85.80;;;16.43;57.23;101194.88;5096596;28;20665;-56
2023/03/19 07:14:17;;;;;;;9.23;8.37;;;13.50;85.50;;;16.40;57.12;101200.63;5116247;28;20233;-59
2023/03/19 07:16:46;;;;;;;9.00;8.13;;;13.50;85.10;;;16.36;57.03;101196.69;5116631;28;20264;-56
2023/03/19 07:19:13;;;;;;;9.10;8.20;;;13.50;84.90;;;16.37;57.27;101195.69;5117662;28;20275;-54
2023/03/19 07:21:40;;;;;;;7.33;6.63;;;13.50;85.00;;;16.41;57.43;101202.22;5116555;28;20199;-55
2023/03/19 07:24:07;;;;;;;8.87;7.97;;;13.50;85.10;;;16.44;57.04;101202.66;5115831;28;20199;-56
2023/03/19 07:26:34;;;;;;;8.23;7.50;;;13.50;85.00;;;16.43;56.81;101210.81;5116450;28;20544;-55
2023/03/19 07:29:01;;;;;;;8.77;7.97;;;13.50;85.00;;;16.42;56.86;101198.56;5116200;28;20188;-57
2023/03/19 07:31:28;;;;;;;8.20;7.13;;;13.50;84.80;;;16.41;57.01;101207.53;5115555;28;20200;-55
2023/03/19 07:33:56;;;;;;;8.17;7.13;;;13.50;84.80;;;16.42;56.91;101206.53;5115513;28;20208;-57
2023/03/19 07:36:23;;;;;;;8.37;7.57;;;13.50;84.90;;;16.40;57.07;101208.59;5115864;28;20195;-55
2023/03/19 07:38:50;;;;;;;8.33;7.57;;;13.50;85.00;;;16.40;57.04;101212.06;5116239;28;20186;-52
2023/03/19 07:41:17;;;;;;;9.03;8.03;;;13.50;85.00;;;16.41;57.35;101212.88;5116409;28;20306;-55
2023/03/19 07:43:44;;;;;;;8.83;7.60;;;13.50;85.10;;;16.46;57.21;101216.56;5115599;28;20215;-56
2023/03/19 07:46:12;;;;;;;7.73;7.03;;;13.50;85.30;;;16.51;57.18;101221.28;5096468;27;20192;-56
2023/03/19 07:48:39;;;;;;;7.93;7.23;;;13.60;85.40;;;16.60;57.24;101223.56;5096389;28;20184;-58
2023/03/19 07:51:08;;;;;;;8.20;7.40;;;13.60;85.40;;;16.69;57.03;101232.16;5096507;28;20609;-55
2023/03/19 07:53:35;;;;;;;7.40;6.27;;;13.70;85.50;;;16.78;57.11;101230.97;5097836;28;20212;-57
2023/03/19 07:56:02;;;;;;;7.93;6.47;;;13.80;85.50;;;16.88;56.68;101228.72;5116536;28;20191;-57
2023/03/19 07:58:29;;;;;;;8.23;7.40;;;13.80;85.50;;;16.97;56.48;101222.19;5126080;27;20194;-55
2023/03/19 08:00:56;;;;;;;7.23;6.60;;;13.90;85.40;;;17.02;56.19;101233.00;5115639;28;20307;-57
2023/03/19 08:03:23;;;;;;;8.80;6.90;;;13.90;85.00;;;17.03;56.45;101234.66;5115024;28;20288;-56
2023/03/19 08:05:51;;;;;;;7.50;6.60;;;14.00;84.90;;;16.99;56.40;101233.44;5115993;28;20184;-57
2023/03/19 08:08:19;;;;;;;8.33;7.53;;;14.00;84.60;;;16.97;56.51;101243.47;5126589;27;20195;-56
2023/03/19 08:10:47;;;;;;;7.33;6.63;;;14.00;84.30;;;16.97;56.46;101240.81;5124121;27;20222;-58
2023/03/19 08:13:14;;;;;;;10.67;7.00;;;14.10;84.40;;;16.94;56.58;101235.91;5108539;28;20208;-59
2023/03/19 08:15:41;;;;;;;8.33;7.30;;;14.10;84.10;;;16.95;56.48;101231.41;5096410;28;20242;-56
2023/03/19 08:18:08;;;;;;;6.73;6.07;;;14.10;84.20;;;17.01;56.60;101234.06;5131099;27;20263;-54
2023/03/19 08:20:35;;;;;;;7.53;6.70;;;14.10;84.30;;;17.13;56.16;101240.41;5115276;28;20230;-57
2023/03/19 08:23:03;;;;;;;7.73;6.30;;;14.20;84.40;;;17.22;56.12;101238.34;5114802;28;20577;-58
2023/03/19 08:25:31;;;;;;;7.33;6.63;;;14.20;84.10;;;17.29;55.86;101244.47;5114959;28;20556;-58
2023/03/19 08:27:59;;;;;;;8.47;6.33;;;14.30;83.80;;;17.36;55.79;101245.28;5115637;28;20244;-56
2023/03/19 08:30:26;;;;;;;7.80;6.70;;;14.30;83.60;;;17.42;55.52;101242.63;5115097;28;20192;-55
2023/03/19 08:32:53;;;;;;;7.90;6.87;;;14.40;83.50;;;17.52;55.24;101240.38;5114652;28;20208;-56
2023/03/19 08:35:20;;;;;;;7.00;6.30;;;14.50;83.50;;;17.61;55.01;101240.19;5115020;28;20738;-57
2023/03/19 08:37:47;;;;;;;7.53;6.40;;;14.60;83.10;;;17.65;54.69;101238.72;5115101;28;20198;-59
2023/03/19 08:40:14;;;;;;;6.93;6.23;;;14.60;82.90;;;17.63;54.59;101235.47;5100562;28;20281;-58
2023/03/19 08:42:42;;;;;;;7.03;6.43;;;14.70;82.50;;;17.65;54.46;101244.06;5094167;28;20564;-57
2023/03/19 08:45:14;;;;;;;7.33;6.47;;;14.70;82.30;;;17.67;54.72;101234.81;5094414;28;20192;-58
2023/03/19 08:47:42;;;;;;;6.00;5.40;;;14.70;82.20;;;17.68;54.50;101244.47;5094462;28;20189;-58
2023/03/19 08:50:10;;;;;;;7.53;6.73;;;14.80;82.10;;;17.73;54.54;101241.19;5099945;28;20951;-56
2023/03/19 08:52:37;;;;;;;7.23;6.53;;;14.80;82.00;;;17.80;54.53;101242.81;5110797;28;20258;-56
2023/03/19 08:55:06;;;;;;;5.83;5.23;;;14.80;82.00;;;17.84;54.21;101249.34;5094307;28;20530;-58
2023/03/19 08:57:34;;;;;;;6.40;5.77;;;14.90;81.80;;;17.87;54.26;101248.09;5116841;27;20203;-54
2023/03/19 09:00:07;;;;;;;7.80;6.33;;;14.90;81.50;;;17.80;54.02;101248.13;5135273;27;20598;-57
2023/03/19 09:02:34;;;;;;;7.27;6.47;;;14.90;81.20;;;17.78;54.18;101246.69;5134735;27;20187;-58
2023/03/19 09:05:00;;;;;;;6.63;5.97;;;14.90;81.00;;;17.78;54.30;101249.38;5135245;27;20247;-57
2023/03/19 09:07:27;;;;;;;7.30;6.37;;;15.00;81.30;;;17.84;54.39;101253.84;5130698;27;20187;-57
2023/03/19 09:09:55;;;;;;;8.17;6.17;;;15.00;81.40;;;17.91;54.30;101254.63;5105109;28;20195;-56
2023/03/19 09:12:21;;;;;;;6.27;5.63;;;15.00;81.40;;;17.98;54.26;101245.59;5114018;28;20184;-58
2023/03/19 09:14:49;;;;;;;6.93;6.23;;;15.10;81.40;;;18.10;53.78;101253.75;5113452;28;20578;-58
2023/03/19 09:17:17;;;;;;;5.87;5.27;;;15.10;81.10;;;18.34;53.83;101263.69;5114648;28;20257;-58
2023/03/19 09:19:44;;;;;;;7.07;6.37;;;15.30;81.60;;;18.61;52.98;101262.53;5114300;28;20214;-57
2023/03/19 09:22:11;;;;;;;6.70;5.83;;;15.40;81.30;;;18.87;52.63;101257.03;5114525;28;20192;-56
2023/03/19 09:24:38;;;;;;;7.27;5.67;;;15.50;81.20;;;19.14;51.70;101259.50;5116900;28;20215;-56
2023/03/19 09:27:06;;;;;;;5.77;5.13;;;15.70;80.50;;;19.40;51.55;101267.34;5114150;28;20192;-57
2023/03/19 09:29:34;;;;;;;5.20;4.70;;;15.90;80.60;;;19.73;51.39;101275.84;5114312;28;20283;-57
2023/03/19 09:32:01;;;;;;;7.17;5.80;;;16.10;80.40;;;20.55;50.60;101269.13;5114551;28;20246;-57
2023/03/19 09:34:29;;;;;;;6.20;5.30;;;16.40;80.40;;;21.52;47.10;101274.03;5130131;28;20640;-56
2023/03/19 09:36:56;;;;;;;5.77;5.27;;;16.90;77.30;;;22.94;45.34;101267.03;5114283;28;20192;-58
2023/03/19 09:39:23;;;;;;;5.50;4.57;;;17.60;77.60;;;24.21;44.08;101274.84;5112190;28;20196;-59
2023/03/19 09:42:12;;;;;;;5.60;5.00;;;18.40;78.00;;;24.75;40.75;101274.88;5093583;28;20599;-59
2023/03/19 09:44:44;;;;;;;5.07;4.47;;;19.20;71.50;;;24.79;40.75;101271.44;5093649;28;20378;-58
2023/03/19 09:47:28;;;;;;;5.27;4.70;;;19.80;70.40;;;24.61;39.77;101268.28;5104807;28;20670;-57
2023/03/19 09:50:01;;;;;;;5.13;4.73;;;20.20;66.70;;;24.37;41.02;101269.63;5114445;28;20188;-58
2023/03/19 09:52:41;;;;;;;4.50;4.10;;;20.30;65.60;;;24.11;41.09;101273.91;5113797;28;20540;-58
2023/03/19 09:55:41;;;;;;;5.50;4.93;;;20.40;65.60;;;23.88;40.62;101266.06;5114360;28;20631;-56
2023/03/19 09:58:15;;;;;;;6.60;5.43;;;20.40;64.40;;;23.76;39.93;101271.53;5107515;28;20215;-58
2023/03/19 10:00:48;;;;;;;5.23;4.43;;;20.30;62.20;;;23.64;40.12;101276.22;5093792;28;20192;-56
2023/03/19 10:03:37;;;;;;;7.03;4.90;;;20.20;62.90;;;23.51;40.33;101279.22;5093695;28;20578;-56
2023/03/19 10:06:26;;;;;;;5.27;4.77;;;20.10;62.20;;;23.42;39.83;101270.78;5094096;28;20832;-56
2023/03/19 10:09:29;;;;;;;5.17;4.67;;;20.00;61.40;;;23.30;38.71;101282.63;5125403;28;20240;-58
2023/03/19 10:12:21;;;;;;;5.13;4.63;;;20.00;61.00;;;23.11;39.00;101275.88;5113398;28;20531;-57
2023/03/19 10:15:16;;;;;;;5.77;4.43;;;19.90;59.70;;;22.81;38.42;101279.69;5113958;28;20258;-55
2023/03/19 10:17:55;;;;;;;5.40;4.60;;;19.70;58.50;;;22.74;38.78;101278.22;5113629;28;20204;-55
2023/03/19 10:20:43;;;;;;;3.70;3.40;;;19.60;58.50;;;23.12;38.90;101272.16;5117283;28;20224;-55